Terminal Aerodrome Forecast
Issued by NWS Albuquerque, NM

Home | Current Version | Previous Version | Text Only | Print | Product List | Glossary On
Versions: 1 2 3 4 5 6 7 8 9 10 11 12 13
000
FTUS45 KABQ 250536
TAFABQ
TAF
KABQ 250536Z 2506/2606 09029G39KT P6SM BKN200
     FM251000 09020G30KT P6SM BKN120
     FM251300 10018G26KT P6SM BKN100
     FM251800 14008KT P6SM SCT120=

USA.gov is the U.S. government's official web portal to all federal, state and local government web resources and services.